createdAt,value
2017-12-19T00:01:47.845Z,18.20
2017-12-19T00:04:17.170Z,21.27
2017-12-19T00:06:45.488Z,23.30
2017-12-19T00:09:13.810Z,13.60
2017-12-19T00:11:42.149Z,18.57
2017-12-19T00:14:10.556Z,10.33
2017-12-19T00:16:39.723Z,9.57
2017-12-19T00:19:08.058Z,14.83
2017-12-19T00:21:36.373Z,8.23
2017-12-19T00:24:04.719Z,10.40
2017-12-19T00:26:33.044Z,17.93
2017-12-19T00:29:01.348Z,21.90
2017-12-19T00:31:29.680Z,8.43
2017-12-19T00:33:58.086Z,8.73
2017-12-19T00:36:26.404Z,16.10
2017-12-19T00:38:55.855Z,9.00
2017-12-19T00:41:26.696Z,8.57
2017-12-19T00:43:55.039Z,13.90
2017-12-19T00:46:23.552Z,12.80
2017-12-19T00:48:52.153Z,9.57
2017-12-19T00:51:20.689Z,6.73
2017-12-19T00:53:48.984Z,14.00
2017-12-19T00:56:17.369Z,13.23
2017-12-19T00:58:45.660Z,8.37
2017-12-19T01:01:14.116Z,10.10
2017-12-19T01:03:42.433Z,7.07
2017-12-19T01:06:10.740Z,9.27
2017-12-19T01:08:39.115Z,7.20
2017-12-19T01:11:07.571Z,8.53
2017-12-19T01:13:35.905Z,9.93
2017-12-19T01:16:04.354Z,11.67
2017-12-19T01:18:32.660Z,14.67
2017-12-19T01:21:00.964Z,10.50
2017-12-19T01:23:29.301Z,11.40
2017-12-19T01:25:57.644Z,14.03
2017-12-19T01:28:26.055Z,12.20
2017-12-19T01:30:54.392Z,7.67
2017-12-19T01:33:22.888Z,12.77
2017-12-19T01:35:51.292Z,8.47
2017-12-19T01:38:19.910Z,10.47
2017-12-19T01:40:48.649Z,13.30
2017-12-19T01:43:16.979Z,13.33
2017-12-19T01:45:45.381Z,17.73
2017-12-19T01:48:13.719Z,18.77
2017-12-19T01:50:42.032Z,14.50
2017-12-19T01:53:10.372Z,17.30
2017-12-19T01:55:38.716Z,18.47
2017-12-19T01:58:07.087Z,15.00
2017-12-19T02:00:35.459Z,18.00
2017-12-19T02:03:03.793Z,18.37
2017-12-19T02:05:32.127Z,21.07
2017-12-19T02:08:04.166Z,21.00
2017-12-19T02:10:32.460Z,18.00
2017-12-19T02:13:00.798Z,22.20
2017-12-19T02:15:29.124Z,17.50
2017-12-19T02:17:57.721Z,21.07
2017-12-19T02:20:26.052Z,19.57
2017-12-19T02:22:54.379Z,25.50
2017-12-19T02:25:22.731Z,19.57
2017-12-19T02:27:51.064Z,23.23
2017-12-19T02:30:19.397Z,19.07
2017-12-19T02:32:47.765Z,23.30
2017-12-19T02:35:19.326Z,21.13
2017-12-19T02:37:50.194Z,26.23
2017-12-19T02:40:19.905Z,19.97
2017-12-19T02:43:01.287Z,15.80
2017-12-19T02:45:29.659Z,18.30
2017-12-19T02:47:58.009Z,25.57
2017-12-19T02:50:26.319Z,15.60
2017-12-19T02:52:54.688Z,22.47
2017-12-19T02:55:23.002Z,17.20
2017-12-19T02:57:51.360Z,16.00
2017-12-19T03:00:20.229Z,15.87
2017-12-19T03:02:48.598Z,14.70
2017-12-19T03:05:16.915Z,25.80
2017-12-19T03:07:45.228Z,16.10
2017-12-19T03:10:13.556Z,19.93
2017-12-19T03:12:41.916Z,25.70
2017-12-19T03:15:10.244Z,20.67
2017-12-19T03:17:38.570Z,17.13
2017-12-19T03:20:06.944Z,17.10
2017-12-19T03:22:35.257Z,17.80
2017-12-19T03:25:04.025Z,18.93
2017-12-19T03:27:33.080Z,15.17
2017-12-19T03:30:01.997Z,15.20
2017-12-19T03:32:30.325Z,28.73
2017-12-19T03:34:58.645Z,18.53
2017-12-19T03:37:27.000Z,16.43
2017-12-19T03:39:55.308Z,15.83
2017-12-19T03:42:23.659Z,24.87
2017-12-19T03:44:51.994Z,20.73
2017-12-19T03:47:20.326Z,17.17
2017-12-19T03:49:48.695Z,22.00
2017-12-19T03:52:17.012Z,18.20
2017-12-19T03:54:45.335Z,17.70
2017-12-19T03:57:13.767Z,23.73
2017-12-19T03:59:42.076Z,15.70
2017-12-19T04:02:10.431Z,23.50
2017-12-19T04:04:38.765Z,16.27
2017-12-19T04:07:07.083Z,20.20
2017-12-19T04:09:35.510Z,20.43
2017-12-19T04:12:03.848Z,21.97
2017-12-19T04:14:32.167Z,21.37
2017-12-19T04:17:00.514Z,18.50
2017-12-19T04:19:28.841Z,18.10
2017-12-19T04:21:57.160Z,14.50
2017-12-19T04:24:25.497Z,27.23
2017-12-19T04:26:53.825Z,19.40
2017-12-19T04:29:22.169Z,19.60
2017-12-19T04:31:50.540Z,29.53
2017-12-19T04:34:18.893Z,20.47
2017-12-19T04:39:21.825Z,21.33
2017-12-19T04:41:50.165Z,22.37
2017-12-19T04:44:19.583Z,18.27
2017-12-19T04:46:48.577Z,22.60
2017-12-19T04:49:16.894Z,17.00
2017-12-19T04:51:45.244Z,20.70
2017-12-19T04:54:13.568Z,24.90
2017-12-19T04:56:41.888Z,29.73
2017-12-19T04:59:10.245Z,22.10
2017-12-19T05:01:38.550Z,22.90
2017-12-19T05:04:06.905Z,23.10
2017-12-19T05:06:35.387Z,26.80
2017-12-19T05:09:03.996Z,31.77
2017-12-19T05:11:32.314Z,22.73
2017-12-19T05:14:00.699Z,21.43
2017-12-19T05:16:29.036Z,29.00
2017-12-19T05:18:57.377Z,24.37
2017-12-19T05:21:25.726Z,31.53
2017-12-19T05:23:54.068Z,32.17
2017-12-19T05:26:22.428Z,24.20
2017-12-19T05:28:50.777Z,22.37
2017-12-19T05:31:19.222Z,23.10
2017-12-19T05:33:48.190Z,24.80
2017-12-19T05:36:16.509Z,30.73
2017-12-19T05:38:44.831Z,25.40
2017-12-19T05:41:13.184Z,22.70
2017-12-19T05:43:41.510Z,22.70
2017-12-19T05:46:10.339Z,25.20
2017-12-19T05:48:38.678Z,33.00
2017-12-19T05:51:13.930Z,23.43
2017-12-19T05:53:42.292Z,25.30
2017-12-19T05:56:20.411Z,21.77
2017-12-19T05:58:48.794Z,26.37
2017-12-19T06:01:17.429Z,22.63
2017-12-19T06:03:45.836Z,18.37
2017-12-19T06:06:14.195Z,32.43
2017-12-19T06:08:42.525Z,20.77
2017-12-19T06:11:11.037Z,19.40
2017-12-19T06:13:39.352Z,24.93
2017-12-19T06:16:07.688Z,28.97
2017-12-19T06:18:36.579Z,26.00
2017-12-19T06:21:06.116Z,27.90
2017-12-19T06:23:34.499Z,26.90
2017-12-19T06:26:02.959Z,28.60
2017-12-19T06:28:36.776Z,22.97
2017-12-19T06:31:05.373Z,26.63
2017-12-19T06:33:33.716Z,23.93
2017-12-19T06:36:02.081Z,24.00
2017-12-19T06:38:30.440Z,23.57
2017-12-19T06:41:00.113Z,20.50
2017-12-19T06:43:29.368Z,26.13
2017-12-19T06:45:59.127Z,26.73
2017-12-19T06:48:27.469Z,26.23
2017-12-19T06:50:55.901Z,22.03
2017-12-19T06:53:24.293Z,19.50
2017-12-19T06:55:52.666Z,21.50
2017-12-19T06:58:21.116Z,26.83
2017-12-19T07:00:50.513Z,21.60
2017-12-19T07:03:20.296Z,27.87
2017-12-19T07:05:48.732Z,24.03
2017-12-19T07:08:17.165Z,22.80
2017-12-19T07:10:45.692Z,17.40
2017-12-19T07:13:17.937Z,17.97
2017-12-19T07:15:49.253Z,18.83
2017-12-19T07:18:20.266Z,19.53
2017-12-19T07:20:48.982Z,23.97
2017-12-19T07:23:19.482Z,19.07
2017-12-19T07:25:49.059Z,22.60
2017-12-19T07:28:18.544Z,28.23
2017-12-19T07:30:48.093Z,24.33
2017-12-19T07:33:20.023Z,18.40
2017-12-19T07:35:48.706Z,24.67
2017-12-19T07:38:18.085Z,26.70
2017-12-19T07:40:49.327Z,20.67
2017-12-19T07:43:18.865Z,23.73
2017-12-19T07:45:47.791Z,22.83
2017-12-19T07:48:16.863Z,28.03
2017-12-19T07:50:46.288Z,28.27
2017-12-19T07:53:14.716Z,25.50
2017-12-19T07:55:43.075Z,29.87
2017-12-19T07:58:12.129Z,26.63
2017-12-19T08:00:41.585Z,28.40
2017-12-19T08:03:13.956Z,24.33
2017-12-19T08:05:45.728Z,39.47
2017-12-19T08:08:16.578Z,28.27
2017-12-19T08:10:45.311Z,30.27
2017-12-19T08:13:14.006Z,30.93
2017-12-19T08:15:42.415Z,32.23
2017-12-19T08:18:10.770Z,26.37
2017-12-19T08:20:39.606Z,32.47
2017-12-19T08:23:07.968Z,29.27
2017-12-19T08:25:36.339Z,34.83
2017-12-19T08:28:04.902Z,28.13
2017-12-19T08:30:33.342Z,32.63
2017-12-19T08:33:02.006Z,35.87
2017-12-19T08:35:30.421Z,32.47
2017-12-19T08:37:58.939Z,28.33
2017-12-19T08:40:27.374Z,36.90
2017-12-19T08:42:57.290Z,36.23
2017-12-19T08:45:29.798Z,29.20
2017-12-19T08:47:59.038Z,33.77
2017-12-19T08:50:27.501Z,33.30
2017-12-19T08:52:57.471Z,33.07
2017-12-19T08:55:28.313Z,31.13
2017-12-19T08:57:57.685Z,34.00
2017-12-19T09:00:26.032Z,33.60
2017-12-19T09:02:54.427Z,32.90
2017-12-19T09:05:22.848Z,45.47
2017-12-19T09:07:51.632Z,44.30
2017-12-19T09:10:20.216Z,35.47
2017-12-19T09:12:48.748Z,35.70
2017-12-19T09:15:17.493Z,32.20
2017-12-19T09:17:45.910Z,30.50
2017-12-19T09:20:14.501Z,34.03
2017-12-19T09:22:42.913Z,39.50
2017-12-19T09:25:11.422Z,29.80
2017-12-19T09:27:43.240Z,30.87
2017-12-19T09:30:15.809Z,49.37
2017-12-19T09:32:44.221Z,32.70
2017-12-19T09:35:12.588Z,28.73
2017-12-19T09:37:41.029Z,33.63
2017-12-19T09:40:10.143Z,29.43
2017-12-19T09:42:38.908Z,28.57
2017-12-19T09:45:07.368Z,40.20
2017-12-19T09:47:35.930Z,31.23
2017-12-19T09:50:04.394Z,36.33
2017-12-19T09:52:32.889Z,34.43
2017-12-19T09:55:01.269Z,44.97
2017-12-19T09:57:29.639Z,30.53
2017-12-19T09:59:58.080Z,35.00
2017-12-19T10:02:27.479Z,42.63
2017-12-19T10:04:57.956Z,40.30
2017-12-19T10:07:28.059Z,37.73
2017-12-19T10:09:56.456Z,37.17
2017-12-19T10:12:27.001Z,46.50
2017-12-19T10:14:58.211Z,45.73
2017-12-19T10:17:26.933Z,50.37
2017-12-19T10:19:56.286Z,34.90
2017-12-19T10:22:24.651Z,41.43
2017-12-19T10:24:54.572Z,38.77
2017-12-19T10:27:24.259Z,36.90
2017-12-19T10:29:53.657Z,37.67
2017-12-19T10:32:22.874Z,35.77
2017-12-19T10:34:51.368Z,50.30
2017-12-19T10:37:22.062Z,37.13
2017-12-19T10:39:50.551Z,48.90
2017-12-19T10:42:18.906Z,34.70
2017-12-19T10:44:47.365Z,35.70
2017-12-19T10:47:15.746Z,41.27
2017-12-19T10:49:44.070Z,42.47
2017-12-19T10:52:12.567Z,43.17
2017-12-19T10:54:40.946Z,39.73
2017-12-19T10:57:10.286Z,38.50
2017-12-19T10:59:39.711Z,41.53
2017-12-19T11:02:08.081Z,43.13
2017-12-19T11:04:36.730Z,49.77
2017-12-19T11:07:05.132Z,42.00
2017-12-19T11:09:33.907Z,45.30
2017-12-19T11:12:02.445Z,44.20
2017-12-19T11:14:30.837Z,51.40
2017-12-19T11:16:59.201Z,53.60
2017-12-19T11:19:27.689Z,54.23
2017-12-19T11:21:57.157Z,57.83
2017-12-19T11:24:25.567Z,51.80
2017-12-19T11:26:54.108Z,62.33
2017-12-19T11:29:22.607Z,56.17
2017-12-19T11:31:50.989Z,54.37
2017-12-19T11:34:20.274Z,46.90
2017-12-19T11:36:49.576Z,52.73
2017-12-19T11:39:18.118Z,50.63
2017-12-19T11:41:46.593Z,47.37
2017-12-19T11:44:15.090Z,52.20
2017-12-19T11:46:43.510Z,47.50
2017-12-19T11:49:11.866Z,54.53
2017-12-19T11:51:40.568Z,57.30
2017-12-19T11:54:09.039Z,64.73
2017-12-19T11:56:37.442Z,58.23
2017-12-19T11:59:05.973Z,54.03
2017-12-19T12:01:34.507Z,43.50
2017-12-19T12:04:04.877Z,65.67
2017-12-19T12:06:33.220Z,49.57
2017-12-19T12:09:01.749Z,46.70
2017-12-19T12:11:30.405Z,46.57
2017-12-19T12:13:58.825Z,52.93
2017-12-19T12:16:27.251Z,44.90
2017-12-19T12:18:57.350Z,44.17
2017-12-19T12:21:25.998Z,39.33
2017-12-19T12:23:54.389Z,40.73
2017-12-19T12:26:22.794Z,52.07
2017-12-19T12:28:51.469Z,46.37
2017-12-19T12:31:19.944Z,45.67
2017-12-19T12:33:48.418Z,50.53
2017-12-19T12:36:16.802Z,47.40
2017-12-19T12:38:45.995Z,39.77
2017-12-19T12:41:14.354Z,43.73
2017-12-19T12:43:42.835Z,42.30
2017-12-19T12:46:12.299Z,44.60
2017-12-19T12:48:41.011Z,35.67
2017-12-19T12:51:09.478Z,56.87
2017-12-19T12:53:38.098Z,52.03
2017-12-19T12:56:06.504Z,46.40
2017-12-19T12:58:34.940Z,40.13
2017-12-19T13:01:03.412Z,36.80
2017-12-19T13:03:31.734Z,36.83
2017-12-19T13:06:00.330Z,38.30
2017-12-19T13:08:28.751Z,34.10
2017-12-19T13:10:57.530Z,36.97
2017-12-19T13:13:25.944Z,36.87
2017-12-19T13:15:55.298Z,40.20
2017-12-19T13:18:26.296Z,52.90
2017-12-19T13:20:54.781Z,43.20
2017-12-19T13:23:23.184Z,49.23
2017-12-19T13:25:51.601Z,38.40
2017-12-19T13:28:20.200Z,35.33
2017-12-19T13:30:48.902Z,33.93
2017-12-19T13:33:17.378Z,43.93
2017-12-19T13:35:45.763Z,39.67
2017-12-19T13:38:14.169Z,40.53
2017-12-19T13:40:42.831Z,34.90
2017-12-19T13:43:12.945Z,38.60
2017-12-19T13:45:41.359Z,34.93
2017-12-19T13:48:09.692Z,37.93
2017-12-19T13:50:38.151Z,48.70
2017-12-19T13:53:06.557Z,45.80
2017-12-19T13:55:34.954Z,40.47
2017-12-19T13:58:03.620Z,50.70
2017-12-19T14:00:32.101Z,42.07
2017-12-19T14:03:00.634Z,44.70
2017-12-19T14:05:34.052Z,54.87
2017-12-19T14:08:02.818Z,43.97
2017-12-19T14:10:31.291Z,48.93
2017-12-19T14:13:00.933Z,54.80
2017-12-19T14:15:29.443Z,55.73
2017-12-19T14:17:57.933Z,52.70
2017-12-19T14:20:26.336Z,48.07
2017-12-19T14:22:54.753Z,39.50
2017-12-19T14:25:23.387Z,43.07
2017-12-19T14:27:52.016Z,49.47
2017-12-19T14:30:20.446Z,51.80
2017-12-19T14:32:48.799Z,49.27
2017-12-19T14:35:17.154Z,46.63
2017-12-19T14:37:45.512Z,49.97
2017-12-19T14:40:14.057Z,46.80
2017-12-19T14:42:42.700Z,46.63
2017-12-19T14:45:11.430Z,45.03
2017-12-19T14:47:39.804Z,37.57
2017-12-19T14:50:08.170Z,41.23
2017-12-19T14:52:41.362Z,52.67
2017-12-19T14:55:09.832Z,39.60
2017-12-19T14:57:39.516Z,40.20
2017-12-19T15:00:08.118Z,45.87
2017-12-19T15:02:37.008Z,53.80
2017-12-19T15:05:05.391Z,45.97
2017-12-19T15:07:34.006Z,46.07
2017-12-19T15:10:02.693Z,45.20
2017-12-19T15:12:31.057Z,47.87
2017-12-19T15:14:59.560Z,48.27
2017-12-19T15:17:28.018Z,41.30
2017-12-19T15:19:56.636Z,41.67
2017-12-19T15:22:25.210Z,44.97
2017-12-19T15:24:53.545Z,47.57
2017-12-19T15:27:22.328Z,41.50
2017-12-19T15:29:50.729Z,42.23
2017-12-19T15:32:19.170Z,38.77
2017-12-19T15:34:47.598Z,41.90
2017-12-19T15:37:15.987Z,51.43
2017-12-19T15:39:44.349Z,50.00
2017-12-19T15:42:12.887Z,53.47
2017-12-19T15:44:41.260Z,43.13
2017-12-19T15:47:09.665Z,44.17
2017-12-19T15:49:37.998Z,49.97
2017-12-19T15:52:06.435Z,54.43
2017-12-19T15:54:35.247Z,48.67
2017-12-19T15:57:04.022Z,54.60
2017-12-19T15:59:32.422Z,50.37
2017-12-19T16:02:00.972Z,47.40
2017-12-19T16:04:29.522Z,62.80
2017-12-19T16:06:58.376Z,60.47
2017-12-19T16:09:27.026Z,55.40
2017-12-19T16:11:55.603Z,53.70
2017-12-19T16:14:25.037Z,51.37
2017-12-19T16:16:53.482Z,57.60
2017-12-19T16:19:23.122Z,64.37
2017-12-19T16:21:51.699Z,67.63
2017-12-19T16:24:20.148Z,56.23
2017-12-19T16:26:48.611Z,56.10
2017-12-19T16:29:16.975Z,60.10
2017-12-19T16:31:45.406Z,57.50
2017-12-19T16:34:13.869Z,56.27
2017-12-19T16:36:43.391Z,54.40
2017-12-19T16:39:11.950Z,55.60
2017-12-19T16:41:40.513Z,52.67
2017-12-19T16:44:08.851Z,55.90
2017-12-19T16:46:37.222Z,65.97
2017-12-19T16:49:05.939Z,63.33
2017-12-19T16:51:34.665Z,61.80
2017-12-19T16:54:03.557Z,67.33
2017-12-19T16:56:31.957Z,56.30
2017-12-19T16:59:00.317Z,58.53
2017-12-19T17:01:28.681Z,58.67
2017-12-19T17:03:57.170Z,56.00
2017-12-19T17:06:25.522Z,72.03
2017-12-19T17:08:53.874Z,65.53
2017-12-19T17:11:22.278Z,55.90
2017-12-19T17:13:50.677Z,60.50
2017-12-19T17:16:19.062Z,62.03
2017-12-19T17:18:47.722Z,70.80
2017-12-19T17:21:16.190Z,66.90
2017-12-19T17:23:44.843Z,80.93
2017-12-19T17:26:13.211Z,66.00
2017-12-19T17:28:41.616Z,78.00
2017-12-19T17:31:09.996Z,70.07
2017-12-19T17:33:38.480Z,61.60
2017-12-19T17:36:06.828Z,67.53
2017-12-19T17:38:39.616Z,73.23
2017-12-19T17:41:08.014Z,73.10
2017-12-19T17:43:36.448Z,63.43
2017-12-19T17:46:04.997Z,73.40
2017-12-19T17:48:33.337Z,66.57
2017-12-19T17:51:01.833Z,81.03
2017-12-19T17:53:30.235Z,72.50
2017-12-19T17:55:58.598Z,75.53
2017-12-19T17:58:27.024Z,79.07
2017-12-19T18:00:56.318Z,67.00
2017-12-19T18:03:24.786Z,80.37
2017-12-19T18:05:53.168Z,67.97
2017-12-19T18:08:21.518Z,68.00
2017-12-19T18:10:50.805Z,65.47
2017-12-19T18:13:20.175Z,60.53
2017-12-19T18:15:48.607Z,62.60
2017-12-19T18:18:16.993Z,76.97
2017-12-19T18:20:46.110Z,61.73
2017-12-19T18:23:14.487Z,61.37
2017-12-19T18:25:42.853Z,80.33
2017-12-19T18:28:11.201Z,64.77
2017-12-19T18:30:39.608Z,58.27
2017-12-19T18:33:08.033Z,59.93
2017-12-19T18:35:36.390Z,67.10
2017-12-19T18:38:04.701Z,58.77
2017-12-19T18:40:33.059Z,57.93
2017-12-19T18:43:01.466Z,62.10
2017-12-19T18:45:29.930Z,62.93
2017-12-19T18:47:58.278Z,59.67
2017-12-19T18:50:26.714Z,56.17
2017-12-19T18:52:55.073Z,65.67
2017-12-19T18:55:23.438Z,72.37
2017-12-19T18:57:51.822Z,65.97
2017-12-19T19:00:20.213Z,68.47
2017-12-19T19:02:48.646Z,72.03
2017-12-19T19:05:17.036Z,63.13
2017-12-19T19:07:45.741Z,64.30
2017-12-19T19:10:14.093Z,68.43
2017-12-19T19:12:42.562Z,61.13
2017-12-19T19:15:10.889Z,63.00
2017-12-19T19:17:39.249Z,70.40
2017-12-19T19:20:09.886Z,68.87
2017-12-19T19:22:38.662Z,75.73
2017-12-19T19:25:08.280Z,76.30
2017-12-19T19:27:38.828Z,70.47
2017-12-19T19:30:07.572Z,74.50
2017-12-19T19:35:11.910Z,67.87
2017-12-19T19:37:42.881Z,81.77
2017-12-19T19:40:12.502Z,78.20
2017-12-19T19:42:42.002Z,73.70
2017-12-19T19:45:10.722Z,66.60
2017-12-19T19:47:39.987Z,63.57
2017-12-19T19:50:09.536Z,60.87
2017-12-19T19:52:38.140Z,76.50
2017-12-19T19:55:06.673Z,76.57
2017-12-19T19:57:35.270Z,69.07
2017-12-19T20:00:03.757Z,66.03
2017-12-19T20:02:33.784Z,72.90
2017-12-19T20:05:03.018Z,65.97
2017-12-19T20:07:31.376Z,77.67
2017-12-19T20:09:59.795Z,73.57
2017-12-19T20:12:28.149Z,74.97
2017-12-19T20:14:56.521Z,65.47
2017-12-19T20:17:25.410Z,60.70
2017-12-19T20:19:53.789Z,70.50
2017-12-19T20:22:22.800Z,63.50
2017-12-19T20:24:51.180Z,65.33
2017-12-19T20:27:19.618Z,71.90
2017-12-19T20:29:47.966Z,72.60
2017-12-19T20:32:16.432Z,63.53
2017-12-19T20:34:51.232Z,70.63
2017-12-19T20:37:21.682Z,66.97
2017-12-19T20:39:50.879Z,74.50
2017-12-19T20:42:21.427Z,64.57
2017-12-19T20:44:49.997Z,55.60
2017-12-19T20:47:19.431Z,61.03
2017-12-19T20:49:49.987Z,56.90
2017-12-19T20:52:18.325Z,60.07
2017-12-19T20:54:46.880Z,62.53
2017-12-19T20:57:15.325Z,57.63
2017-12-19T20:59:44.427Z,64.73
2017-12-19T21:02:12.873Z,66.20
2017-12-19T21:04:41.227Z,60.30
2017-12-19T21:07:09.887Z,55.20
2017-12-19T21:09:44.592Z,75.80
2017-12-19T21:12:13.501Z,64.23
2017-12-19T21:14:41.843Z,74.93
2017-12-19T21:17:10.187Z,68.83
2017-12-19T21:19:38.569Z,63.73
2017-12-19T21:22:06.952Z,71.17
2017-12-19T21:24:35.311Z,83.83
2017-12-19T21:27:03.652Z,71.53
2017-12-19T21:29:37.913Z,76.97
2017-12-19T21:32:06.253Z,71.57
2017-12-19T21:34:38.291Z,66.67
2017-12-19T21:37:13.865Z,73.87
2017-12-19T21:39:43.470Z,68.70
2017-12-19T21:42:13.320Z,69.63
2017-12-19T21:44:41.729Z,66.93
2017-12-19T21:47:10.971Z,74.97
2017-12-19T21:49:39.494Z,77.00
2017-12-19T21:52:07.869Z,75.70
2017-12-19T21:54:36.325Z,80.03
2017-12-19T21:57:04.692Z,83.67
2017-12-19T21:59:33.256Z,70.10
2017-12-19T22:02:02.738Z,76.03
2017-12-19T22:04:31.064Z,66.10
2017-12-19T22:06:59.555Z,61.33
2017-12-19T22:09:28.929Z,65.57
2017-12-19T22:11:57.418Z,64.00
2017-12-19T22:14:25.899Z,66.63
2017-12-19T22:16:54.235Z,59.03
2017-12-19T22:19:22.625Z,62.37
2017-12-19T22:21:50.975Z,51.80
2017-12-19T22:24:19.918Z,73.77
2017-12-19T22:26:48.233Z,61.97
2017-12-19T22:29:16.613Z,52.97
2017-12-19T22:34:37.983Z,43.80
2017-12-19T22:37:06.403Z,48.83
2017-12-19T22:39:36.086Z,41.73
2017-12-19T22:42:05.024Z,45.73
2017-12-19T22:44:33.986Z,57.27
2017-12-19T22:47:03.856Z,41.83
2017-12-19T22:49:32.967Z,48.20
2017-12-19T22:52:01.300Z,58.50
2017-12-19T22:54:29.895Z,47.60
2017-12-19T22:56:58.363Z,41.17
2017-12-19T22:59:26.861Z,50.50
2017-12-19T23:01:55.291Z,49.30
2017-12-19T23:04:24.853Z,55.20
2017-12-19T23:06:53.949Z,49.63
2017-12-19T23:09:22.312Z,47.90
2017-12-19T23:11:50.650Z,47.83
2017-12-19T23:14:19.118Z,45.73
2017-12-19T23:16:47.430Z,43.87
2017-12-19T23:19:15.782Z,42.80
2017-12-19T23:21:45.090Z,46.30
2017-12-19T23:24:13.417Z,44.60
2017-12-19T23:26:41.826Z,49.60
2017-12-19T23:29:10.150Z,48.73
2017-12-19T23:31:38.460Z,46.07
2017-12-19T23:34:07.083Z,42.50
2017-12-19T23:36:35.415Z,45.13
2017-12-19T23:39:03.800Z,35.53
2017-12-19T23:41:32.127Z,49.30
2017-12-19T23:44:00.462Z,38.17
2017-12-19T23:46:28.808Z,44.80
2017-12-19T23:48:57.140Z,48.27
2017-12-19T23:51:25.529Z,37.40
2017-12-19T23:53:54.329Z,43.33
2017-12-19T23:56:22.682Z,33.43
2017-12-19T23:58:51.007Z,41.23
